F/V Men Ar Groas — FIKN — position and weather

sailwx.info

Track history (hours):
 
Tides and Currents Weather Stations Pressure Air Temp Water Temp Dewpoint Dewpoint Depression Visibility Wind Speed Wind Dir Waves Ship Positions

F/V Men Ar Groas

Last reported at 2018-Feb-20 06:46 UTC. Time now 2018-Feb-21 07:27 UTC.
Position N 47°46' W 004°20'.

Length 20 m.

Type: Other ship. MMSI: 227877000.

Date/timePositionNaut miles runAvg speedWind from/ knotsBaromVisibWave heightAir tempDewpointWater temp
2018-Feb-20 06:46N 47°46' W 004°20'3 0.1
2018-Feb-18 04:13N 47°47' W 004°17'2 8.8
2018-Feb-18 04:00N 47°46' W 004°19'4 8.4
2018-Feb-18 03:30N 47°44' W 004°24'4 8.4
2018-Feb-18 03:00N 47°42' W 004°30'4 8.4
2018-Feb-18 02:30N 47°40' W 004°35'4 8.5
2018-Feb-18 02:00N 47°37' W 004°41'31 3.2
2018-Feb-17 16:17N 47°28' W 005°24'1 0.1
2018-Feb-16 16:35N 47°27' W 005°26'46 1.4
2018-Feb-15 07:47N 47°45' W 004°24'2 7.7
2018-Feb-15 07:29N 47°46' W 004°20'  
Track history (hours):
 
Tides and Currents Weather Stations Pressure Air Temp Water Temp Dewpoint Dewpoint Depression Visibility Wind Speed Wind Dir Waves Ship Positions

F/V Men Ar Groas

Last reported at 2018-Feb-20 06:46 UTC. Time now 2018-Feb-21 07:27 UTC.
Position N 47°46' W 004°20'.

Length 20 m.

Type: Other ship. MMSI: 227877000.

Date/timePositionNaut miles runAvg speedWind from/ knotsBaromVisibWave heightAir tempDewpointWater temp
2018-Feb-20 06:46N 47°46' W 004°20'3 0.1
2018-Feb-18 04:13N 47°47' W 004°17'2 8.8
2018-Feb-18 04:00N 47°46' W 004°19'4 8.4
2018-Feb-18 03:30N 47°44' W 004°24'4 8.4
2018-Feb-18 03:00N 47°42' W 004°30'4 8.4
2018-Feb-18 02:30N 47°40' W 004°35'4 8.5
2018-Feb-18 02:00N 47°37' W 004°41'31 3.2
2018-Feb-17 16:17N 47°28' W 005°24'1 0.1
2018-Feb-16 16:35N 47°27' W 005°26'46 1.4
2018-Feb-15 07:47N 47°45' W 004°24'2 7.7
2018-Feb-15 07:29N 47°46' W 004°20'  

Dump ship's entire track history